Horsholm, Denmark
Current Conditions -  °F | °C
As of 10:50 PM on Friday 28 Nov 2014 (Local Time) from EKCH Reporting Station
Overcast Overcast  
Wind Chill: 31°   Ceiling: 3200
Heat Index: 39°   Visibility: 6mi
Dew Point: 28°   Wind: 15mph
Humidity: 65%   Direction: 90°E
Pressure: 30.33"   Gusts: NA
Location:  55.88°N, 12.5°E
Report Text: EKCH 282150Z 09013KT 9999 OVC032 04/M02 Q1027 NOSIG
Loading
Personal Weather Stations






























Interactive Weather Map New forecast layout! Learn more

10-Day Weather Forecast

Advertisements
Track Severe Weather on mobile